sensor_id;sensor_type;location;lat;lon;timestamp;P1;durP1;ratioP1;P2;durP2;ratioP2
70796;SDS011;63842;52.144;5.360;2023-03-24T00:00:46;11.68;;;3.15;;
70796;SDS011;63842;52.144;5.360;2023-03-24T00:03:14;7.63;;;2.38;;
70796;SDS011;63842;52.144;5.360;2023-03-24T00:08:10;6.78;;;2.40;;
70796;SDS011;63842;52.144;5.360;2023-03-24T00:10:37;8.68;;;2.58;;
70796;SDS011;63842;52.144;5.360;2023-03-24T00:13:05;7.47;;;2.78;;
70796;SDS011;63842;52.144;5.360;2023-03-24T00:15:33;9.60;;;2.55;;
70796;SDS011;63842;52.144;5.360;2023-03-24T00:18:01;8.10;;;2.60;;
70796;SDS011;63842;52.144;5.360;2023-03-24T00:20:29;6.75;;;2.42;;
70796;SDS011;63842;52.144;5.360;2023-03-24T00:22:58;8.63;;;2.53;;
70796;SDS011;63842;52.144;5.360;2023-03-24T00:25:29;8.95;;;2.45;;
70796;SDS011;63842;52.144;5.360;2023-03-24T00:28:02;9.00;;;2.40;;
70796;SDS011;63842;52.144;5.360;2023-03-24T00:30:33;7.28;;;2.33;;
70796;SDS011;63842;52.144;5.360;2023-03-24T00:33:00;9.00;;;2.50;;
70796;SDS011;63842;52.144;5.360;2023-03-24T00:35:27;8.77;;;2.65;;
70796;SDS011;63842;52.144;5.360;2023-03-24T00:37:55;8.40;;;2.53;;
70796;SDS011;63842;52.144;5.360;2023-03-24T00:40:22;7.53;;;2.60;;
70796;SDS011;63842;52.144;5.360;2023-03-24T00:42:50;7.32;;;2.40;;
70796;SDS011;63842;52.144;5.360;2023-03-24T00:45:19;7.75;;;2.55;;
70796;SDS011;63842;52.144;5.360;2023-03-24T00:47:48;9.18;;;2.53;;
70796;SDS011;63842;52.144;5.360;2023-03-24T00:50:20;7.65;;;2.60;;
70796;SDS011;63842;52.144;5.360;2023-03-24T00:52:52;8.20;;;2.78;;
70796;SDS011;63842;52.144;5.360;2023-03-24T00:55:19;9.20;;;2.47;;
70796;SDS011;63842;52.144;5.360;2023-03-24T00:57:48;10.45;;;2.50;;
70796;SDS011;63842;52.144;5.360;2023-03-24T01:00:20;8.57;;;2.55;;
70796;SDS011;63842;52.144;5.360;2023-03-24T01:02:52;8.52;;;2.50;;
70796;SDS011;63842;52.144;5.360;2023-03-24T01:05:21;9.40;;;2.83;;
70796;SDS011;63842;52.144;5.360;2023-03-24T01:07:49;9.50;;;2.45;;
70796;SDS011;63842;52.144;5.360;2023-03-24T01:10:19;9.02;;;2.60;;
70796;SDS011;63842;52.144;5.360;2023-03-24T01:12:47;7.35;;;2.83;;
70796;SDS011;63842;52.144;5.360;2023-03-24T01:15:15;7.88;;;2.60;;
70796;SDS011;63842;52.144;5.360;2023-03-24T01:17:43;7.90;;;3.05;;
70796;SDS011;63842;52.144;5.360;2023-03-24T01:20:12;7.28;;;2.53;;
70796;SDS011;63842;52.144;5.360;2023-03-24T01:22:40;8.23;;;2.55;;
70796;SDS011;63842;52.144;5.360;2023-03-24T01:25:14;8.30;;;2.70;;
70796;SDS011;63842;52.144;5.360;2023-03-24T01:27:45;7.72;;;2.90;;
70796;SDS011;63842;52.144;5.360;2023-03-24T01:30:14;7.82;;;2.50;;
70796;SDS011;63842;52.144;5.360;2023-03-24T01:32:41;8.38;;;2.78;;
70796;SDS011;63842;52.144;5.360;2023-03-24T01:35:09;8.50;;;2.65;;
70796;SDS011;63842;52.144;5.360;2023-03-24T01:37:37;8.02;;;2.63;;
70796;SDS011;63842;52.144;5.360;2023-03-24T01:40:04;6.95;;;2.70;;
70796;SDS011;63842;52.144;5.360;2023-03-24T01:42:35;7.55;;;2.63;;
70796;SDS011;63842;52.144;5.360;2023-03-24T01:47:49;7.90;;;2.90;;
70796;SDS011;63842;52.144;5.360;2023-03-24T01:50:17;6.95;;;2.60;;
70796;SDS011;63842;52.144;5.360;2023-03-24T01:52:44;8.35;;;2.42;;
70796;SDS011;63842;52.144;5.360;2023-03-24T01:55:13;7.95;;;2.55;;
70796;SDS011;63842;52.144;5.360;2023-03-24T01:57:46;7.65;;;2.90;;
70796;SDS011;63842;52.144;5.360;2023-03-24T02:00:16;6.80;;;2.60;;
70796;SDS011;63842;52.144;5.360;2023-03-24T02:03:05;7.97;;;2.75;;
70796;SDS011;63842;52.144;5.360;2023-03-24T02:05:40;7.68;;;2.80;;
70796;SDS011;63842;52.144;5.360;2023-03-24T02:10:41;8.43;;;3.10;;
70796;SDS011;63842;52.144;5.360;2023-03-24T02:13:10;9.85;;;3.83;;
70796;SDS011;63842;52.144;5.360;2023-03-24T02:15:40;8.98;;;3.25;;
70796;SDS011;63842;52.144;5.360;2023-03-24T02:18:24;8.32;;;2.97;;
70796;SDS011;63842;52.144;5.360;2023-03-24T02:23:33;8.35;;;2.92;;
70796;SDS011;63842;52.144;5.360;2023-03-24T02:36:56;6.88;;;2.92;;
70796;SDS011;63842;52.144;5.360;2023-03-24T02:50:05;6.57;;;2.40;;
70796;SDS011;63842;52.144;5.360;2023-03-24T02:52:39;5.55;;;2.03;;
70796;SDS011;63842;52.144;5.360;2023-03-24T02:55:13;5.05;;;1.90;;
70796;SDS011;63842;52.144;5.360;2023-03-24T02:57:42;4.38;;;1.67;;
70796;SDS011;63842;52.144;5.360;2023-03-24T03:00:44;3.83;;;1.50;;
70796;SDS011;63842;52.144;5.360;2023-03-24T03:03:38;4.15;;;1.20;;
70796;SDS011;63842;52.144;5.360;2023-03-24T03:06:19;4.97;;;1.20;;
70796;SDS011;63842;52.144;5.360;2023-03-24T03:08:48;6.43;;;1.45;;
70796;SDS011;63842;52.144;5.360;2023-03-24T03:11:16;6.00;;;1.30;;
70796;SDS011;63842;52.144;5.360;2023-03-24T03:13:52;3.47;;;1.23;;
70796;SDS011;63842;52.144;5.360;2023-03-24T03:16:26;3.17;;;1.20;;
70796;SDS011;63842;52.144;5.360;2023-03-24T03:19:00;4.57;;;1.20;;
70796;SDS011;63842;52.144;5.360;2023-03-24T03:21:30;7.63;;;1.25;;
70796;SDS011;63842;52.144;5.360;2023-03-24T03:24:11;6.65;;;1.30;;
70796;SDS011;63842;52.144;5.360;2023-03-24T03:26:41;5.75;;;1.38;;
70796;SDS011;63842;52.144;5.360;2023-03-24T03:29:10;5.72;;;1.23;;
70796;SDS011;63842;52.144;5.360;2023-03-24T03:31:50;6.18;;;1.40;;
70796;SDS011;63842;52.144;5.360;2023-03-24T03:34:32;6.00;;;1.20;;
70796;SDS011;63842;52.144;5.360;2023-03-24T03:37:15;5.82;;;1.00;;
70796;SDS011;63842;52.144;5.360;2023-03-24T03:39:48;8.13;;;1.60;;
70796;SDS011;63842;52.144;5.360;2023-03-24T03:42:16;4.50;;;1.00;;
70796;SDS011;63842;52.144;5.360;2023-03-24T03:44:43;5.03;;;1.02;;
70796;SDS011;63842;52.144;5.360;2023-03-24T03:47:12;5.95;;;1.35;;
70796;SDS011;63842;52.144;5.360;2023-03-24T03:49:43;8.40;;;1.50;;
70796;SDS011;63842;52.144;5.360;2023-03-24T03:52:12;7.47;;;1.50;;
70796;SDS011;63842;52.144;5.360;2023-03-24T03:54:39;7.53;;;1.17;;
70796;SDS011;63842;52.144;5.360;2023-03-24T03:57:07;10.73;;;1.38;;
70796;SDS011;63842;52.144;5.360;2023-03-24T03:59:55;7.60;;;1.48;;
70796;SDS011;63842;52.144;5.360;2023-03-24T04:22:02;7.78;;;1.55;;
70796;SDS011;63842;52.144;5.360;2023-03-24T04:27:26;6.60;;;1.50;;
70796;SDS011;63842;52.144;5.360;2023-03-24T04:32:39;6.70;;;1.98;;
70796;SDS011;63842;52.144;5.360;2023-03-24T04:35:10;8.85;;;2.13;;
70796;SDS011;63842;52.144;5.360;2023-03-24T04:38:01;9.68;;;2.00;;
70796;SDS011;63842;52.144;5.360;2023-03-24T04:40:33;8.10;;;1.55;;
70796;SDS011;63842;52.144;5.360;2023-03-24T04:43:08;10.38;;;2.08;;
70796;SDS011;63842;52.144;5.360;2023-03-24T04:45:36;9.65;;;1.75;;
70796;SDS011;63842;52.144;5.360;2023-03-24T04:48:27;8.27;;;1.98;;
70796;SDS011;63842;52.144;5.360;2023-03-24T04:51:05;9.57;;;2.63;;
70796;SDS011;63842;52.144;5.360;2023-03-24T04:53:47;13.32;;;2.10;;
70796;SDS011;63842;52.144;5.360;2023-03-24T04:56:35;11.75;;;2.22;;
70796;SDS011;63842;52.144;5.360;2023-03-24T04:59:07;14.98;;;2.72;;
70796;SDS011;63842;52.144;5.360;2023-03-24T05:01:36;9.07;;;2.13;;
70796;SDS011;63842;52.144;5.360;2023-03-24T05:04:39;12.38;;;1.85;;
70796;SDS011;63842;52.144;5.360;2023-03-24T05:07:24;13.85;;;2.15;;
70796;SDS011;63842;52.144;5.360;2023-03-24T05:09:56;11.77;;;1.90;;
70796;SDS011;63842;52.144;5.360;2023-03-24T05:12:23;17.13;;;2.10;;
70796;SDS011;63842;52.144;5.360;2023-03-24T05:15:09;15.07;;;1.95;;
70796;SDS011;63842;52.144;5.360;2023-03-24T05:17:37;7.60;;;1.38;;
70796;SDS011;63842;52.144;5.360;2023-03-24T05:20:05;11.90;;;1.77;;
70796;SDS011;63842;52.144;5.360;2023-03-24T05:22:38;11.45;;;2.10;;
70796;SDS011;63842;52.144;5.360;2023-03-24T05:25:05;16.98;;;2.17;;
70796;SDS011;63842;52.144;5.360;2023-03-24T05:27:33;13.27;;;1.60;;
70796;SDS011;63842;52.144;5.360;2023-03-24T05:30:11;13.65;;;2.15;;
70796;SDS011;63842;52.144;5.360;2023-03-24T05:32:39;12.68;;;2.38;;
70796;SDS011;63842;52.144;5.360;2023-03-24T05:35:07;15.77;;;2.47;;
70796;SDS011;63842;52.144;5.360;2023-03-24T05:37:34;13.38;;;1.83;;
70796;SDS011;63842;52.144;5.360;2023-03-24T05:40:02;12.75;;;1.88;;
70796;SDS011;63842;52.144;5.360;2023-03-24T05:42:39;12.48;;;1.98;;
70796;SDS011;63842;52.144;5.360;2023-03-24T05:45:07;13.75;;;1.80;;
70796;SDS011;63842;52.144;5.360;2023-03-24T05:47:35;11.80;;;1.77;;
70796;SDS011;63842;52.144;5.360;2023-03-24T05:50:03;15.23;;;2.35;;
70796;SDS011;63842;52.144;5.360;2023-03-24T05:52:31;11.70;;;2.13;;
70796;SDS011;63842;52.144;5.360;2023-03-24T05:55:14;15.45;;;2.13;;
70796;SDS011;63842;52.144;5.360;2023-03-24T05:57:42;10.45;;;2.63;;
70796;SDS011;63842;52.144;5.360;2023-03-24T06:00:29;16.30;;;2.22;;
70796;SDS011;63842;52.144;5.360;2023-03-24T06:03:04;15.10;;;1.98;;
70796;SDS011;63842;52.144;5.360;2023-03-24T06:05:42;18.15;;;2.25;;
70796;SDS011;63842;52.144;5.360;2023-03-24T06:08:11;19.83;;;2.38;;
70796;SDS011;63842;52.144;5.360;2023-03-24T06:10:39;12.05;;;2.60;;
70796;SDS011;63842;52.144;5.360;2023-03-24T06:13:06;19.23;;;2.22;;
70796;SDS011;63842;52.144;5.360;2023-03-24T06:15:37;14.23;;;1.90;;
70796;SDS011;63842;52.144;5.360;2023-03-24T06:18:27;13.75;;;2.50;;
70796;SDS011;63842;52.144;5.360;2023-03-24T06:20:59;14.13;;;2.28;;
70796;SDS011;63842;52.144;5.360;2023-03-24T06:26:08;13.57;;;2.00;;
70796;SDS011;63842;52.144;5.360;2023-03-24T06:28:50;16.67;;;2.50;;
70796;SDS011;63842;52.144;5.360;2023-03-24T06:31:19;18.23;;;2.45;;
70796;SDS011;63842;52.144;5.360;2023-03-24T06:33:50;17.67;;;2.50;;
70796;SDS011;63842;52.144;5.360;2023-03-24T06:36:18;12.68;;;2.70;;
70796;SDS011;63842;52.144;5.360;2023-03-24T06:38:46;15.13;;;4.05;;
70796;SDS011;63842;52.144;5.360;2023-03-24T06:41:18;16.73;;;3.97;;
70796;SDS011;63842;52.144;5.360;2023-03-24T06:43:49;14.25;;;2.10;;
70796;SDS011;63842;52.144;5.360;2023-03-24T06:46:17;13.20;;;2.42;;
70796;SDS011;63842;52.144;5.360;2023-03-24T06:48:45;12.65;;;2.53;;
70796;SDS011;63842;52.144;5.360;2023-03-24T06:53:42;12.80;;;2.17;;
70796;SDS011;63842;52.144;5.360;2023-03-24T06:56:11;15.48;;;2.85;;
70796;SDS011;63842;52.144;5.360;2023-03-24T06:58:48;13.57;;;2.38;;
70796;SDS011;63842;52.144;5.360;2023-03-24T07:01:27;10.90;;;2.65;;
70796;SDS011;63842;52.144;5.360;2023-03-24T07:04:04;13.38;;;2.55;;
70796;SDS011;63842;52.144;5.360;2023-03-24T07:06:43;12.40;;;2.75;;
70796;SDS011;63842;52.144;5.360;2023-03-24T07:09:31;9.60;;;2.10;;
70796;SDS011;63842;52.144;5.360;2023-03-24T07:11:59;10.15;;;2.35;;
70796;SDS011;63842;52.144;5.360;2023-03-24T07:14:28;13.20;;;2.35;;
70796;SDS011;63842;52.144;5.360;2023-03-24T07:16:56;9.95;;;1.92;;
70796;SDS011;63842;52.144;5.360;2023-03-24T07:19:47;10.45;;;2.05;;
70796;SDS011;63842;52.144;5.360;2023-03-24T07:22:43;12.15;;;2.33;;
70796;SDS011;63842;52.144;5.360;2023-03-24T07:25:43;14.45;;;2.55;;
70796;SDS011;63842;52.144;5.360;2023-03-24T07:28:23;11.88;;;2.47;;
70796;SDS011;63842;52.144;5.360;2023-03-24T07:30:51;12.80;;;2.30;;
70796;SDS011;63842;52.144;5.360;2023-03-24T07:33:20;11.57;;;2.63;;
70796;SDS011;63842;52.144;5.360;2023-03-24T07:35:53;13.82;;;2.97;;
70796;SDS011;63842;52.144;5.360;2023-03-24T07:38:22;12.57;;;2.35;;
70796;SDS011;63842;52.144;5.360;2023-03-24T07:40:52;10.00;;;2.05;;
70796;SDS011;63842;52.144;5.360;2023-03-24T07:43:20;13.63;;;2.47;;
70796;SDS011;63842;52.144;5.360;2023-03-24T07:46:00;12.57;;;2.55;;
70796;SDS011;63842;52.144;5.360;2023-03-24T07:48:27;13.35;;;2.50;;
70796;SDS011;63842;52.144;5.360;2023-03-24T07:50:55;9.85;;;2.55;;
70796;SDS011;63842;52.144;5.360;2023-03-24T07:53:55;11.68;;;2.30;;
70796;SDS011;63842;52.144;5.360;2023-03-24T07:56:36;12.02;;;2.20;;
70796;SDS011;63842;52.144;5.360;2023-03-24T07:59:04;13.63;;;2.80;;
70796;SDS011;63842;52.144;5.360;2023-03-24T08:01:52;12.73;;;2.60;;
70796;SDS011;63842;52.144;5.360;2023-03-24T08:04:36;16.65;;;2.88;;
70796;SDS011;63842;52.144;5.360;2023-03-24T08:07:12;8.68;;;2.10;;
70796;SDS011;63842;52.144;5.360;2023-03-24T08:09:40;11.73;;;2.17;;
70796;SDS011;63842;52.144;5.360;2023-03-24T08:12:07;12.55;;;2.30;;
70796;SDS011;63842;52.144;5.360;2023-03-24T08:14:45;13.15;;;2.15;;
70796;SDS011;63842;52.144;5.360;2023-03-24T08:17:13;11.65;;;2.08;;
70796;SDS011;63842;52.144;5.360;2023-03-24T08:19:40;13.38;;;2.42;;
70796;SDS011;63842;52.144;5.360;2023-03-24T08:22:24;16.83;;;2.50;;
70796;SDS011;63842;52.144;5.360;2023-03-24T08:24:52;10.95;;;2.22;;
70796;SDS011;63842;52.144;5.360;2023-03-24T08:27:19;12.70;;;2.10;;
70796;SDS011;63842;52.144;5.360;2023-03-24T08:29:47;12.05;;;2.08;;
70796;SDS011;63842;52.144;5.360;2023-03-24T08:32:14;13.38;;;2.28;;
70796;SDS011;63842;52.144;5.360;2023-03-24T08:34:41;13.38;;;1.95;;
70796;SDS011;63842;52.144;5.360;2023-03-24T08:37:09;13.32;;;2.50;;
70796;SDS011;63842;52.144;5.360;2023-03-24T08:39:37;14.48;;;2.58;;
70796;SDS011;63842;52.144;5.360;2023-03-24T08:42:05;13.43;;;2.30;;
70796;SDS011;63842;52.144;5.360;2023-03-24T08:44:33;10.65;;;2.30;;
70796;SDS011;63842;52.144;5.360;2023-03-24T08:47:08;12.75;;;2.33;;
70796;SDS011;63842;52.144;5.360;2023-03-24T08:52:04;10.02;;;2.40;;
70796;SDS011;63842;52.144;5.360;2023-03-24T08:54:33;11.13;;;2.35;;
70796;SDS011;63842;52.144;5.360;2023-03-24T08:57:01;11.07;;;2.53;;
70796;SDS011;63842;52.144;5.360;2023-03-24T08:59:31;9.02;;;2.35;;
70796;SDS011;63842;52.144;5.360;2023-03-24T09:01:59;12.20;;;2.70;;
70796;SDS011;63842;52.144;5.360;2023-03-24T09:04:27;13.95;;;2.85;;
70796;SDS011;63842;52.144;5.360;2023-03-24T09:06:54;12.35;;;2.38;;
70796;SDS011;63842;52.144;5.360;2023-03-24T09:09:28;11.52;;;2.50;;
70796;SDS011;63842;52.144;5.360;2023-03-24T09:11:56;12.55;;;2.58;;
70796;SDS011;63842;52.144;5.360;2023-03-24T09:14:23;12.07;;;2.40;;
70796;SDS011;63842;52.144;5.360;2023-03-24T09:16:51;9.07;;;2.38;;
70796;SDS011;63842;52.144;5.360;2023-03-24T09:19:18;8.52;;;2.00;;
70796;SDS011;63842;52.144;5.360;2023-03-24T09:21:45;12.40;;;2.42;;
70796;SDS011;63842;52.144;5.360;2023-03-24T09:24:14;10.82;;;2.53;;
70796;SDS011;63842;52.144;5.360;2023-03-24T09:26:41;12.73;;;2.53;;
70796;SDS011;63842;52.144;5.360;2023-03-24T09:29:08;10.40;;;2.08;;
70796;SDS011;63842;52.144;5.360;2023-03-24T09:31:36;14.20;;;2.13;;
70796;SDS011;63842;52.144;5.360;2023-03-24T09:34:03;13.65;;;2.40;;
70796;SDS011;63842;52.144;5.360;2023-03-24T09:36:31;12.38;;;2.47;;
70796;SDS011;63842;52.144;5.360;2023-03-24T09:38:58;12.05;;;2.80;;
70796;SDS011;63842;52.144;5.360;2023-03-24T09:41:27;11.60;;;2.70;;
70796;SDS011;63842;52.144;5.360;2023-03-24T09:46:42;12.60;;;2.65;;
70796;SDS011;63842;52.144;5.360;2023-03-24T09:49:12;13.85;;;2.90;;
70796;SDS011;63842;52.144;5.360;2023-03-24T09:51:40;6.50;;;2.10;;
70796;SDS011;63842;52.144;5.360;2023-03-24T09:56:37;10.13;;;2.47;;
70796;SDS011;63842;52.144;5.360;2023-03-24T09:59:06;11.30;;;2.13;;
70796;SDS011;63842;52.144;5.360;2023-03-24T10:01:34;13.63;;;2.40;;
70796;SDS011;63842;52.144;5.360;2023-03-24T10:04:02;10.20;;;2.20;;
70796;SDS011;63842;52.144;5.360;2023-03-24T10:06:30;11.82;;;2.80;;
70796;SDS011;63842;52.144;5.360;2023-03-24T10:11:35;10.65;;;2.13;;
70796;SDS011;63842;52.144;5.360;2023-03-24T10:14:12;11.65;;;2.00;;
70796;SDS011;63842;52.144;5.360;2023-03-24T10:19:20;12.63;;;1.80;;
70796;SDS011;63842;52.144;5.360;2023-03-24T10:22:04;11.15;;;2.20;;
70796;SDS011;63842;52.144;5.360;2023-03-24T10:24:35;12.27;;;2.33;;
70796;SDS011;63842;52.144;5.360;2023-03-24T10:27:28;12.82;;;2.15;;
70796;SDS011;63842;52.144;5.360;2023-03-24T10:29:59;11.98;;;1.95;;
70796;SDS011;63842;52.144;5.360;2023-03-24T10:32:28;12.60;;;2.22;;
70796;SDS011;63842;52.144;5.360;2023-03-24T10:34:56;13.45;;;2.42;;
70796;SDS011;63842;52.144;5.360;2023-03-24T10:37:26;11.85;;;2.03;;
70796;SDS011;63842;52.144;5.360;2023-03-24T10:39:55;12.50;;;2.15;;
70796;SDS011;63842;52.144;5.360;2023-03-24T10:42:23;10.95;;;2.03;;
70796;SDS011;63842;52.144;5.360;2023-03-24T10:44:51;10.73;;;1.80;;
70796;SDS011;63842;52.144;5.360;2023-03-24T10:47:29;16.58;;;2.55;;
70796;SDS011;63842;52.144;5.360;2023-03-24T10:49:59;11.88;;;2.28;;
70796;SDS011;63842;52.144;5.360;2023-03-24T10:52:41;13.45;;;2.75;;
70796;SDS011;63842;52.144;5.360;2023-03-24T10:57:36;11.18;;;2.00;;
70796;SDS011;63842;52.144;5.360;2023-03-24T11:00:07;9.40;;;1.88;;
70796;SDS011;63842;52.144;5.360;2023-03-24T11:02:43;14.77;;;2.22;;
70796;SDS011;63842;52.144;5.360;2023-03-24T11:05:13;10.73;;;1.75;;
70796;SDS011;63842;52.144;5.360;2023-03-24T11:07:41;12.95;;;2.08;;
70796;SDS011;63842;52.144;5.360;2023-03-24T11:15:15;12.45;;;1.92;;
70796;SDS011;63842;52.144;5.360;2023-03-24T11:17:54;10.73;;;2.00;;
70796;SDS011;63842;52.144;5.360;2023-03-24T11:25:26;11.93;;;2.35;;
70796;SDS011;63842;52.144;5.360;2023-03-24T11:27:59;13.25;;;2.45;;
70796;SDS011;63842;52.144;5.360;2023-03-24T11:30:28;12.27;;;2.10;;
70796;SDS011;63842;52.144;5.360;2023-03-24T11:32:59;9.07;;;2.10;;
70796;SDS011;63842;52.144;5.360;2023-03-24T11:35:27;10.60;;;2.28;;
70796;SDS011;63842;52.144;5.360;2023-03-24T11:38:17;11.32;;;2.17;;
70796;SDS011;63842;52.144;5.360;2023-03-24T11:40:51;9.90;;;2.28;;
70796;SDS011;63842;52.144;5.360;2023-03-24T11:43:19;8.18;;;1.95;;
70796;SDS011;63842;52.144;5.360;2023-03-24T11:45:52;10.05;;;2.10;;
70796;SDS011;63842;52.144;5.360;2023-03-24T11:48:30;8.40;;;1.75;;
70796;SDS011;63842;52.144;5.360;2023-03-24T11:50:59;8.55;;;2.10;;
70796;SDS011;63842;52.144;5.360;2023-03-24T11:53:29;9.27;;;1.95;;
70796;SDS011;63842;52.144;5.360;2023-03-24T11:56:22;13.77;;;2.67;;
70796;SDS011;63842;52.144;5.360;2023-03-24T11:58:55;7.80;;;1.83;;
70796;SDS011;63842;52.144;5.360;2023-03-24T12:09:09;9.70;;;2.13;;
70796;SDS011;63842;52.144;5.360;2023-03-24T12:14:26;8.25;;;2.08;;
70796;SDS011;63842;52.144;5.360;2023-03-24T12:17:30;13.63;;;2.08;;
70796;SDS011;63842;52.144;5.360;2023-03-24T12:23:00;6.75;;;1.50;;
70796;SDS011;63842;52.144;5.360;2023-03-24T12:25:36;5.82;;;1.33;;
70796;SDS011;63842;52.144;5.360;2023-03-24T12:33:07;7.57;;;1.40;;
70796;SDS011;63842;52.144;5.360;2023-03-24T12:38:36;6.65;;;1.42;;
70796;SDS011;63842;52.144;5.360;2023-03-24T12:41:13;7.70;;;1.60;;
70796;SDS011;63842;52.144;5.360;2023-03-24T12:43:58;8.70;;;1.75;;
70796;SDS011;63842;52.144;5.360;2023-03-24T12:49:16;7.00;;;1.40;;
70796;SDS011;63842;52.144;5.360;2023-03-24T12:56:51;6.35;;;1.30;;
70796;SDS011;63842;52.144;5.360;2023-03-24T12:59:29;6.72;;;1.38;;
70796;SDS011;63842;52.144;5.360;2023-03-24T13:02:45;6.60;;;1.30;;
70796;SDS011;63842;52.144;5.360;2023-03-24T13:04:46;5.55;;;1.27;;
70796;SDS011;63842;52.144;5.360;2023-03-24T13:07:16;8.32;;;1.75;;
70796;SDS011;63842;52.144;5.360;2023-03-24T13:09:54;8.10;;;1.38;;
70796;SDS011;63842;52.144;5.360;2023-03-24T13:12:26;5.45;;;1.27;;
70796;SDS011;63842;52.144;5.360;2023-03-24T13:15:05;8.55;;;1.30;;
70796;SDS011;63842;52.144;5.360;2023-03-24T13:20:13;9.40;;;1.67;;
70796;SDS011;63842;52.144;5.360;2023-03-24T13:22:43;7.80;;;1.30;;
70796;SDS011;63842;52.144;5.360;2023-03-24T13:28:09;8.27;;;1.20;;
70796;SDS011;63842;52.144;5.360;2023-03-24T13:30:39;9.57;;;1.38;;
70796;SDS011;63842;52.144;5.360;2023-03-24T13:33:18;10.60;;;1.45;;
70796;SDS011;63842;52.144;5.360;2023-03-24T13:41:02;6.35;;;1.50;;
70796;SDS011;63842;52.144;5.360;2023-03-24T13:43:30;7.80;;;1.50;;
70796;SDS011;63842;52.144;5.360;2023-03-24T13:46:05;9.32;;;1.83;;
70796;SDS011;63842;52.144;5.360;2023-03-24T13:48:37;8.98;;;1.83;;
70796;SDS011;63842;52.144;5.360;2023-03-24T13:51:13;11.18;;;1.55;;
70796;SDS011;63842;52.144;5.360;2023-03-24T13:53:44;7.30;;;1.50;;
70796;SDS011;63842;52.144;5.360;2023-03-24T13:56:21;11.10;;;1.92;;
70796;SDS011;63842;52.144;5.360;2023-03-24T13:59:04;8.55;;;1.73;;
70796;SDS011;63842;52.144;5.360;2023-03-24T14:01:36;10.02;;;2.10;;
70796;SDS011;63842;52.144;5.360;2023-03-24T14:06:48;6.55;;;1.88;;
70796;SDS011;63842;52.144;5.360;2023-03-24T14:09:18;9.15;;;1.90;;
70796;SDS011;63842;52.144;5.360;2023-03-24T14:14:34;6.40;;;1.33;;
70796;SDS011;63842;52.144;5.360;2023-03-24T14:19:36;6.18;;;1.45;;
70796;SDS011;63842;52.144;5.360;2023-03-24T14:24:44;8.05;;;1.55;;
70796;SDS011;63842;52.144;5.360;2023-03-24T14:30:02;5.40;;;1.30;;
70796;SDS011;63842;52.144;5.360;2023-03-24T14:32:35;7.63;;;1.50;;
70796;SDS011;63842;52.144;5.360;2023-03-24T14:35:03;4.78;;;1.30;;
70796;SDS011;63842;52.144;5.360;2023-03-24T14:37:31;5.82;;;1.27;;
70796;SDS011;63842;52.144;5.360;2023-03-24T14:39:59;5.75;;;1.25;;
70796;SDS011;63842;52.144;5.360;2023-03-24T14:45:04;6.55;;;1.20;;
70796;SDS011;63842;52.144;5.360;2023-03-24T14:47:58;6.13;;;1.20;;
70796;SDS011;63842;52.144;5.360;2023-03-24T14:52:57;7.97;;;1.20;;
70796;SDS011;63842;52.144;5.360;2023-03-24T14:55:25;7.10;;;1.38;;
70796;SDS011;63842;52.144;5.360;2023-03-24T14:57:54;8.48;;;1.63;;
70796;SDS011;63842;52.144;5.360;2023-03-24T15:00:36;9.32;;;1.67;;
70796;SDS011;63842;52.144;5.360;2023-03-24T15:06:20;7.22;;;1.60;;
70796;SDS011;63842;52.144;5.360;2023-03-24T15:08:51;7.63;;;1.50;;
70796;SDS011;63842;52.144;5.360;2023-03-24T15:11:19;8.68;;;1.42;;
70796;SDS011;63842;52.144;5.360;2023-03-24T15:16:17;6.88;;;1.38;;
70796;SDS011;63842;52.144;5.360;2023-03-24T15:18:50;8.20;;;1.30;;
70796;SDS011;63842;52.144;5.360;2023-03-24T15:21:29;7.82;;;1.17;;
70796;SDS011;63842;52.144;5.360;2023-03-24T15:23:59;5.90;;;1.13;;
70796;SDS011;63842;52.144;5.360;2023-03-24T15:26:27;9.23;;;1.60;;
70796;SDS011;63842;52.144;5.360;2023-03-24T15:28:59;6.75;;;1.30;;
70796;SDS011;63842;52.144;5.360;2023-03-24T15:31:27;8.63;;;1.40;;
70796;SDS011;63842;52.144;5.360;2023-03-24T15:34:02;5.55;;;1.08;;
70796;SDS011;63842;52.144;5.360;2023-03-24T15:36:33;7.38;;;1.52;;
70796;SDS011;63842;52.144;5.360;2023-03-24T15:39:02;10.77;;;1.70;;
70796;SDS011;63842;52.144;5.360;2023-03-24T15:41:42;10.60;;;1.85;;
70796;SDS011;63842;52.144;5.360;2023-03-24T15:44:09;8.55;;;1.67;;
70796;SDS011;63842;52.144;5.360;2023-03-24T15:46:43;8.60;;;1.70;;
70796;SDS011;63842;52.144;5.360;2023-03-24T15:49:29;9.02;;;1.80;;
70796;SDS011;63842;52.144;5.360;2023-03-24T15:52:42;6.85;;;1.40;;
70796;SDS011;63842;52.144;5.360;2023-03-24T15:54:44;11.43;;;1.50;;
70796;SDS011;63842;52.144;5.360;2023-03-24T15:57:21;8.30;;;1.42;;
70796;SDS011;63842;52.144;5.360;2023-03-24T15:59:50;10.55;;;1.60;;
70796;SDS011;63842;52.144;5.360;2023-03-24T16:02:39;9.05;;;1.70;;
70796;SDS011;63842;52.144;5.360;2023-03-24T16:05:21;10.55;;;1.60;;
70796;SDS011;63842;52.144;5.360;2023-03-24T16:07:53;9.38;;;1.88;;
70796;SDS011;63842;52.144;5.360;2023-03-24T16:10:26;11.18;;;1.67;;
70796;SDS011;63842;52.144;5.360;2023-03-24T16:13:10;12.27;;;1.90;;
70796;SDS011;63842;52.144;5.360;2023-03-24T16:15:40;10.55;;;1.80;;
70796;SDS011;63842;52.144;5.360;2023-03-24T16:18:10;8.40;;;2.00;;
70796;SDS011;63842;52.144;5.360;2023-03-24T16:20:38;8.05;;;1.45;;
70796;SDS011;63842;52.144;5.360;2023-03-24T16:23:07;7.47;;;1.55;;
70796;SDS011;63842;52.144;5.360;2023-03-24T16:25:36;9.38;;;1.70;;
70796;SDS011;63842;52.144;5.360;2023-03-24T16:28:03;7.53;;;1.60;;
70796;SDS011;63842;52.144;5.360;2023-03-24T16:30:32;10.80;;;1.40;;
70796;SDS011;63842;52.144;5.360;2023-03-24T16:33:04;8.77;;;1.52;;
70796;SDS011;63842;52.144;5.360;2023-03-24T16:35:32;7.00;;;1.50;;
70796;SDS011;63842;52.144;5.360;2023-03-24T16:38:00;6.88;;;1.38;;
70796;SDS011;63842;52.144;5.360;2023-03-24T16:40:32;8.50;;;1.48;;
70796;SDS011;63842;52.144;5.360;2023-03-24T16:43:05;9.73;;;1.60;;
70796;SDS011;63842;52.144;5.360;2023-03-24T16:45:32;7.53;;;1.30;;
70796;SDS011;63842;52.144;5.360;2023-03-24T16:48:00;8.88;;;1.75;;
70796;SDS011;63842;52.144;5.360;2023-03-24T16:50:32;8.30;;;1.55;;
70796;SDS011;63842;52.144;5.360;2023-03-24T16:53:01;7.60;;;1.30;;
70796;SDS011;63842;52.144;5.360;2023-03-24T16:55:34;6.32;;;1.75;;
70796;SDS011;63842;52.144;5.360;2023-03-24T16:58:02;10.98;;;1.35;;
70796;SDS011;63842;52.144;5.360;2023-03-24T17:00:29;5.93;;;1.30;;
70796;SDS011;63842;52.144;5.360;2023-03-24T17:02:57;7.10;;;1.27;;
70796;SDS011;63842;52.144;5.360;2023-03-24T17:05:28;9.27;;;1.10;;
70796;SDS011;63842;52.144;5.360;2023-03-24T17:07:59;6.47;;;1.27;;
70796;SDS011;63842;52.144;5.360;2023-03-24T17:10:26;7.82;;;1.30;;
70796;SDS011;63842;52.144;5.360;2023-03-24T17:12:54;11.48;;;1.77;;
70796;SDS011;63842;52.144;5.360;2023-03-24T17:15:23;7.03;;;1.42;;
70796;SDS011;63842;52.144;5.360;2023-03-24T17:17:52;10.80;;;1.65;;
70796;SDS011;63842;52.144;5.360;2023-03-24T17:20:20;8.93;;;1.30;;
70796;SDS011;63842;52.144;5.360;2023-03-24T17:22:49;6.80;;;1.30;;
70796;SDS011;63842;52.144;5.360;2023-03-24T17:25:18;7.97;;;1.50;;
70796;SDS011;63842;52.144;5.360;2023-03-24T17:27:48;9.13;;;1.40;;
70796;SDS011;63842;52.144;5.360;2023-03-24T17:30:17;7.05;;;1.50;;
70796;SDS011;63842;52.144;5.360;2023-03-24T17:32:46;6.50;;;1.08;;
70796;SDS011;63842;52.144;5.360;2023-03-24T17:35:15;6.43;;;1.30;;
70796;SDS011;63842;52.144;5.360;2023-03-24T17:37:44;9.43;;;1.30;;
70796;SDS011;63842;52.144;5.360;2023-03-24T17:40:14;7.07;;;1.20;;
70796;SDS011;63842;52.144;5.360;2023-03-24T17:42:43;7.68;;;1.20;;